sensor_id;sensor_type;location;lat;lon;timestamp;temperature;humidity
6052;DHT22;3054;51.204;4.430;2022-09-09T00:00:17;18.58;79.90
6052;DHT22;3054;51.204;4.430;2022-09-09T00:03:05;18.59;79.85
6052;DHT22;3054;51.204;4.430;2022-09-09T00:05:41;18.53;79.81
6052;DHT22;3054;51.204;4.430;2022-09-09T00:08:17;18.48;79.78
6052;DHT22;3054;51.204;4.430;2022-09-09T00:10:49;18.41;80.00
6052;DHT22;3054;51.204;4.430;2022-09-09T00:13:22;18.36;79.94
6052;DHT22;3054;51.204;4.430;2022-09-09T00:15:57;18.28;80.10
6052;DHT22;3054;51.204;4.430;2022-09-09T00:18:31;18.29;80.17
6052;DHT22;3054;51.204;4.430;2022-09-09T00:21:06;18.21;80.20
6052;DHT22;3054;51.204;4.430;2022-09-09T00:23:37;18.20;80.24
6052;DHT22;3054;51.204;4.430;2022-09-09T00:26:09;18.15;80.33
6052;DHT22;3054;51.204;4.430;2022-09-09T00:28:41;18.12;80.35
6052;DHT22;3054;51.204;4.430;2022-09-09T00:31:13;18.10;80.44
6052;DHT22;3054;51.204;4.430;2022-09-09T00:33:43;18.10;80.42
6052;DHT22;3054;51.204;4.430;2022-09-09T00:36:13;18.09;80.51
6052;DHT22;3054;51.204;4.430;2022-09-09T00:38:43;18.10;80.38
6052;DHT22;3054;51.204;4.430;2022-09-09T00:41:22;18.08;80.45
6052;DHT22;3054;51.204;4.430;2022-09-09T00:43:57;18.06;80.50
6052;DHT22;3054;51.204;4.430;2022-09-09T00:46:41;18.07;80.59
6052;DHT22;3054;51.204;4.430;2022-09-09T00:49:20;18.08;80.57
6052;DHT22;3054;51.204;4.430;2022-09-09T00:51:58;18.03;80.56
6052;DHT22;3054;51.204;4.430;2022-09-09T00:54:38;18.04;80.58
6052;DHT22;3054;51.204;4.430;2022-09-09T00:57:28;18.05;80.60
6052;DHT22;3054;51.204;4.430;2022-09-09T01:00:16;18.09;80.59
6052;DHT22;3054;51.204;4.430;2022-09-09T01:02:50;18.14;80.41
6052;DHT22;3054;51.204;4.430;2022-09-09T01:05:27;18.13;80.35
6052;DHT22;3054;51.204;4.430;2022-09-09T01:07:58;18.11;80.30
6052;DHT22;3054;51.204;4.430;2022-09-09T01:10:37;18.11;80.36
6052;DHT22;3054;51.204;4.430;2022-09-09T01:13:13;18.14;80.24
6052;DHT22;3054;51.204;4.430;2022-09-09T01:15:42;18.13;80.19
6052;DHT22;3054;51.204;4.430;2022-09-09T01:18:13;18.11;80.25
6052;DHT22;3054;51.204;4.430;2022-09-09T01:20:49;18.05;80.29
6052;DHT22;3054;51.204;4.430;2022-09-09T01:23:42;18.05;80.36
6052;DHT22;3054;51.204;4.430;2022-09-09T01:26:34;18.04;80.33
6052;DHT22;3054;51.204;4.430;2022-09-09T01:29:02;17.98;80.38
6052;DHT22;3054;51.204;4.430;2022-09-09T01:31:37;17.95;80.48
6052;DHT22;3054;51.204;4.430;2022-09-09T01:34:09;17.95;80.56
6052;DHT22;3054;51.204;4.430;2022-09-09T01:36:40;17.96;80.55
6052;DHT22;3054;51.204;4.430;2022-09-09T01:39:08;17.95;80.48
6052;DHT22;3054;51.204;4.430;2022-09-09T01:41:37;17.95;80.48
6052;DHT22;3054;51.204;4.430;2022-09-09T01:44:05;17.97;80.51
6052;DHT22;3054;51.204;4.430;2022-09-09T01:46:32;17.99;80.45
6052;DHT22;3054;51.204;4.430;2022-09-09T01:49:00;17.97;80.48
6052;DHT22;3054;51.204;4.430;2022-09-09T01:51:28;18.00;80.42
6052;DHT22;3054;51.204;4.430;2022-09-09T01:53:56;18.02;80.36
6052;DHT22;3054;51.204;4.430;2022-09-09T01:56:39;17.99;80.51
6052;DHT22;3054;51.204;4.430;2022-09-09T01:59:18;18.05;80.51
6052;DHT22;3054;51.204;4.430;2022-09-09T02:02:03;18.07;80.35
6052;DHT22;3054;51.204;4.430;2022-09-09T02:04:37;18.04;80.32
6052;DHT22;3054;51.204;4.430;2022-09-09T02:07:12;17.99;80.44
6052;DHT22;3054;51.204;4.430;2022-09-09T02:09:42;17.99;80.46
6052;DHT22;3054;51.204;4.430;2022-09-09T02:12:16;18.00;80.44
6052;DHT22;3054;51.204;4.430;2022-09-09T02:14:50;18.07;80.37
6052;DHT22;3054;51.204;4.430;2022-09-09T02:17:24;18.12;80.26
6052;DHT22;3054;51.204;4.430;2022-09-09T02:19:54;18.14;80.16
6052;DHT22;3054;51.204;4.430;2022-09-09T02:22:24;18.11;80.20
6052;DHT22;3054;51.204;4.430;2022-09-09T02:24:56;18.11;80.26
6052;DHT22;3054;51.204;4.430;2022-09-09T02:27:26;18.14;80.17
6052;DHT22;3054;51.204;4.430;2022-09-09T02:29:55;18.11;80.11
6052;DHT22;3054;51.204;4.430;2022-09-09T02:32:24;18.08;80.18
6052;DHT22;3054;51.204;4.430;2022-09-09T02:34:54;18.07;80.30
6052;DHT22;3054;51.204;4.430;2022-09-09T02:37:26;18.05;80.27
6052;DHT22;3054;51.204;4.430;2022-09-09T02:39:55;18.04;80.27
6052;DHT22;3054;51.204;4.430;2022-09-09T02:42:21;18.00;80.41
6052;DHT22;3054;51.204;4.430;2022-09-09T02:44:50;18.03;80.43
6052;DHT22;3054;51.204;4.430;2022-09-09T02:47:29;18.03;80.49
6052;DHT22;3054;51.204;4.430;2022-09-09T02:50:08;18.03;80.47
6052;DHT22;3054;51.204;4.430;2022-09-09T02:52:45;18.03;80.53
6052;DHT22;3054;51.204;4.430;2022-09-09T02:55:20;17.99;80.49
6052;DHT22;3054;51.204;4.430;2022-09-09T02:57:49;17.97;80.58
6052;DHT22;3054;51.204;4.430;2022-09-09T03:00:22;17.98;80.65
6052;DHT22;3054;51.204;4.430;2022-09-09T03:02:50;18.03;80.61
6052;DHT22;3054;51.204;4.430;2022-09-09T03:05:17;18.00;80.50
6052;DHT22;3054;51.204;4.430;2022-09-09T03:07:44;17.98;80.65
6052;DHT22;3054;51.204;4.430;2022-09-09T03:10:13;17.95;80.72
6052;DHT22;3054;51.204;4.430;2022-09-09T03:12:39;17.96;80.75
6052;DHT22;3054;51.204;4.430;2022-09-09T03:15:08;17.98;80.77
6052;DHT22;3054;51.204;4.430;2022-09-09T03:17:36;17.98;80.76
6052;DHT22;3054;51.204;4.430;2022-09-09T03:20:04;18.04;80.72
6052;DHT22;3054;51.204;4.430;2022-09-09T03:22:31;18.02;80.69
6052;DHT22;3054;51.204;4.430;2022-09-09T03:24:58;17.96;80.79
6052;DHT22;3054;51.204;4.430;2022-09-09T03:27:25;17.94;81.00
6052;DHT22;3054;51.204;4.430;2022-09-09T03:29:52;17.98;80.91
6052;DHT22;3054;51.204;4.430;2022-09-09T03:32:19;17.99;80.98
6052;DHT22;3054;51.204;4.430;2022-09-09T03:34:49;17.99;80.98
6052;DHT22;3054;51.204;4.430;2022-09-09T03:37:16;18.00;81.01
6052;DHT22;3054;51.204;4.430;2022-09-09T03:39:43;18.02;81.03
6052;DHT22;3054;51.204;4.430;2022-09-09T03:42:12;17.99;81.13
6052;DHT22;3054;51.204;4.430;2022-09-09T03:44:39;18.03;81.13
6052;DHT22;3054;51.204;4.430;2022-09-09T03:47:07;18.03;81.16
6052;DHT22;3054;51.204;4.430;2022-09-09T03:49:34;18.04;81.15
6052;DHT22;3054;51.204;4.430;2022-09-09T03:52:02;18.02;81.20
6052;DHT22;3054;51.204;4.430;2022-09-09T03:54:29;17.99;81.29
6052;DHT22;3054;51.204;4.430;2022-09-09T03:56:59;17.96;81.35
6052;DHT22;3054;51.204;4.430;2022-09-09T03:59:26;17.96;81.50
6052;DHT22;3054;51.204;4.430;2022-09-09T04:01:53;17.97;81.50
6052;DHT22;3054;51.204;4.430;2022-09-09T04:04:20;17.94;81.52
6052;DHT22;3054;51.204;4.430;2022-09-09T04:06:49;17.95;81.54
6052;DHT22;3054;51.204;4.430;2022-09-09T04:09:18;17.96;81.59
6052;DHT22;3054;51.204;4.430;2022-09-09T04:11:44;18.02;81.56
6052;DHT22;3054;51.204;4.430;2022-09-09T04:14:11;18.00;81.51
6052;DHT22;3054;51.204;4.430;2022-09-09T04:16:39;17.97;81.60
6052;DHT22;3054;51.204;4.430;2022-09-09T04:19:10;17.95;81.76
6052;DHT22;3054;51.204;4.430;2022-09-09T04:21:38;17.96;81.78
6052;DHT22;3054;51.204;4.430;2022-09-09T04:24:06;17.97;81.84
6052;DHT22;3054;51.204;4.430;2022-09-09T04:26:35;17.99;81.81
6052;DHT22;3054;51.204;4.430;2022-09-09T04:29:03;18.04;81.78
6052;DHT22;3054;51.204;4.430;2022-09-09T04:31:30;18.05;81.66
6052;DHT22;3054;51.204;4.430;2022-09-09T04:33:57;18.00;81.71
6052;DHT22;3054;51.204;4.430;2022-09-09T04:36:24;17.99;81.75
6052;DHT22;3054;51.204;4.430;2022-09-09T04:38:51;17.97;81.83
6052;DHT22;3054;51.204;4.430;2022-09-09T04:41:18;17.97;81.82
6052;DHT22;3054;51.204;4.430;2022-09-09T04:43:50;17.96;81.89
6052;DHT22;3054;51.204;4.430;2022-09-09T04:46:17;17.93;81.92
6052;DHT22;3054;51.204;4.430;2022-09-09T04:48:46;17.94;81.97
6052;DHT22;3054;51.204;4.430;2022-09-09T04:51:19;17.94;81.95
6052;DHT22;3054;51.204;4.430;2022-09-09T04:53:46;17.89;82.04
6052;DHT22;3054;51.204;4.430;2022-09-09T04:56:15;17.88;82.13
6052;DHT22;3054;51.204;4.430;2022-09-09T04:58:42;17.85;82.25
6052;DHT22;3054;51.204;4.430;2022-09-09T05:01:12;17.84;82.31
6052;DHT22;3054;51.204;4.430;2022-09-09T05:03:40;17.83;82.33
6052;DHT22;3054;51.204;4.430;2022-09-09T05:06:09;17.85;82.32
6052;DHT22;3054;51.204;4.430;2022-09-09T05:08:37;17.83;82.35
6052;DHT22;3054;51.204;4.430;2022-09-09T05:11:11;17.81;82.42
6052;DHT22;3054;51.204;4.430;2022-09-09T05:13:38;17.83;82.46
6052;DHT22;3054;51.204;4.430;2022-09-09T05:16:05;17.82;82.50
6052;DHT22;3054;51.204;4.430;2022-09-09T05:18:33;17.81;82.64
6052;DHT22;3054;51.204;4.430;2022-09-09T05:21:00;17.81;82.59
6052;DHT22;3054;51.204;4.430;2022-09-09T05:23:27;17.81;82.62
6052;DHT22;3054;51.204;4.430;2022-09-09T05:25:55;17.89;82.63
6052;DHT22;3054;51.204;4.430;2022-09-09T05:28:23;17.95;82.59
6052;DHT22;3054;51.204;4.430;2022-09-09T05:30:57;17.99;82.51
6052;DHT22;3054;51.204;4.430;2022-09-09T05:36:48;18.12;82.18
6052;DHT22;3054;51.204;4.430;2022-09-09T05:39:17;18.12;82.14
6052;DHT22;3054;51.204;4.430;2022-09-09T05:41:44;18.14;81.88
6052;DHT22;3054;51.204;4.430;2022-09-09T05:44:11;18.15;81.81
6052;DHT22;3054;51.204;4.430;2022-09-09T05:46:39;18.22;81.65
6052;DHT22;3054;51.204;4.430;2022-09-09T05:49:06;18.26;81.46
6052;DHT22;3054;51.204;4.430;2022-09-09T05:51:33;18.30;81.46
6052;DHT22;3054;51.204;4.430;2022-09-09T05:54:02;18.33;81.46
6052;DHT22;3054;51.204;4.430;2022-09-09T05:56:29;18.38;81.25
6052;DHT22;3054;51.204;4.430;2022-09-09T05:58:57;18.40;81.16
6052;DHT22;3054;51.204;4.430;2022-09-09T06:01:27;18.39;81.14
6052;DHT22;3054;51.204;4.430;2022-09-09T06:03:54;18.38;81.18
6052;DHT22;3054;51.204;4.430;2022-09-09T06:06:23;18.36;81.17
6052;DHT22;3054;51.204;4.430;2022-09-09T06:08:53;18.38;81.10
6052;DHT22;3054;51.204;4.430;2022-09-09T06:11:25;18.38;81.13
6052;DHT22;3054;51.204;4.430;2022-09-09T06:13:53;18.39;81.01
6052;DHT22;3054;51.204;4.430;2022-09-09T06:16:21;18.43;80.86
6052;DHT22;3054;51.204;4.430;2022-09-09T06:18:50;18.49;80.69
6052;DHT22;3054;51.204;4.430;2022-09-09T06:21:18;18.55;80.49
6052;DHT22;3054;51.204;4.430;2022-09-09T06:23:46;18.65;80.23
6052;DHT22;3054;51.204;4.430;2022-09-09T06:26:15;18.74;79.93
6052;DHT22;3054;51.204;4.430;2022-09-09T06:28:44;18.80;79.72
6052;DHT22;3054;51.204;4.430;2022-09-09T06:31:13;18.83;79.56
6052;DHT22;3054;51.204;4.430;2022-09-09T06:33:41;18.84;79.49
6052;DHT22;3054;51.204;4.430;2022-09-09T06:36:11;18.87;79.41
6052;DHT22;3054;51.204;4.430;2022-09-09T06:38:39;18.89;79.26
6052;DHT22;3054;51.204;4.430;2022-09-09T06:41:06;18.95;79.13
6052;DHT22;3054;51.204;4.430;2022-09-09T06:43:34;19.01;78.95
6052;DHT22;3054;51.204;4.430;2022-09-09T06:46:04;19.01;78.79
6052;DHT22;3054;51.204;4.430;2022-09-09T06:48:32;18.91;78.96
6052;DHT22;3054;51.204;4.430;2022-09-09T06:51:04;18.88;79.04
6052;DHT22;3054;51.204;4.430;2022-09-09T06:53:32;18.87;79.01
6052;DHT22;3054;51.204;4.430;2022-09-09T06:56:00;18.85;79.03
6052;DHT22;3054;51.204;4.430;2022-09-09T06:58:27;18.82;78.99
6052;DHT22;3054;51.204;4.430;2022-09-09T07:01:03;18.82;79.10
6052;DHT22;3054;51.204;4.430;2022-09-09T07:03:30;18.83;78.87
6052;DHT22;3054;51.204;4.430;2022-09-09T07:05:57;18.86;78.78
6052;DHT22;3054;51.204;4.430;2022-09-09T07:08:25;18.93;78.47
6052;DHT22;3054;51.204;4.430;2022-09-09T07:10:52;19.01;78.11
6052;DHT22;3054;51.204;4.430;2022-09-09T07:13:19;19.18;77.64
6052;DHT22;3054;51.204;4.430;2022-09-09T07:15:50;19.30;77.31
6052;DHT22;3054;51.204;4.430;2022-09-09T07:18:18;19.33;77.08
6052;DHT22;3054;51.204;4.430;2022-09-09T07:20:53;19.36;77.08
6052;DHT22;3054;51.204;4.430;2022-09-09T07:23:22;19.42;76.86
6052;DHT22;3054;51.204;4.430;2022-09-09T07:25:49;19.48;76.57
6052;DHT22;3054;51.204;4.430;2022-09-09T07:28:17;19.53;76.31
6052;DHT22;3054;51.204;4.430;2022-09-09T07:30:52;19.51;76.34
6052;DHT22;3054;51.204;4.430;2022-09-09T07:33:20;19.45;76.44
6052;DHT22;3054;51.204;4.430;2022-09-09T07:35:47;19.39;76.61
6052;DHT22;3054;51.204;4.430;2022-09-09T07:38:14;19.31;76.71
6052;DHT22;3054;51.204;4.430;2022-09-09T07:40:42;19.29;76.76
6052;DHT22;3054;51.204;4.430;2022-09-09T07:43:09;19.37;76.56
6052;DHT22;3054;51.204;4.430;2022-09-09T07:45:36;19.40;76.38
6052;DHT22;3054;51.204;4.430;2022-09-09T07:48:04;19.38;76.34
6052;DHT22;3054;51.204;4.430;2022-09-09T07:50:32;19.32;76.30
6052;DHT22;3054;51.204;4.430;2022-09-09T07:52:59;19.35;76.16
6052;DHT22;3054;51.204;4.430;2022-09-09T07:55:26;19.43;75.86
6052;DHT22;3054;51.204;4.430;2022-09-09T07:57:53;19.46;75.80
6052;DHT22;3054;51.204;4.430;2022-09-09T08:00:20;19.52;75.67
6052;DHT22;3054;51.204;4.430;2022-09-09T08:02:47;19.47;75.52
6052;DHT22;3054;51.204;4.430;2022-09-09T08:05:14;19.51;75.25
6052;DHT22;3054;51.204;4.430;2022-09-09T08:07:43;19.52;75.24
6052;DHT22;3054;51.204;4.430;2022-09-09T08:10:11;19.51;75.24
6052;DHT22;3054;51.204;4.430;2022-09-09T08:12:40;19.51;75.16
6052;DHT22;3054;51.204;4.430;2022-09-09T08:15:07;19.46;75.18
6052;DHT22;3054;51.204;4.430;2022-09-09T08:17:34;19.46;75.26
6052;DHT22;3054;51.204;4.430;2022-09-09T08:20:04;19.48;75.26
6052;DHT22;3054;51.204;4.430;2022-09-09T08:22:31;19.47;75.34
6052;DHT22;3054;51.204;4.430;2022-09-09T08:24:59;19.45;75.37
6052;DHT22;3054;51.204;4.430;2022-09-09T08:27:26;19.44;75.38
6052;DHT22;3054;51.204;4.430;2022-09-09T08:29:53;19.48;75.34
6052;DHT22;3054;51.204;4.430;2022-09-09T08:32:21;19.56;75.10
6052;DHT22;3054;51.204;4.430;2022-09-09T08:34:48;19.58;74.89
6052;DHT22;3054;51.204;4.430;2022-09-09T08:37:15;19.61;74.80
6052;DHT22;3054;51.204;4.430;2022-09-09T08:39:42;19.77;74.34
6052;DHT22;3054;51.204;4.430;2022-09-09T08:42:28;19.79;74.26
6052;DHT22;3054;51.204;4.430;2022-09-09T08:45:12;19.77;74.42
6052;DHT22;3054;51.204;4.430;2022-09-09T08:47:51;19.86;74.18
6052;DHT22;3054;51.204;4.430;2022-09-09T08:50:25;19.90;74.00
6052;DHT22;3054;51.204;4.430;2022-09-09T08:52:59;19.95;73.93
6052;DHT22;3054;51.204;4.430;2022-09-09T08:55:35;19.92;73.92
6052;DHT22;3054;51.204;4.430;2022-09-09T08:58:11;19.82;74.19
6052;DHT22;3054;51.204;4.430;2022-09-09T09:03:37;19.63;74.54
6052;DHT22;3054;51.204;4.430;2022-09-09T09:06:17;19.68;74.66
6052;DHT22;3054;51.204;4.430;2022-09-09T09:08:51;19.69;74.66
6052;DHT22;3054;51.204;4.430;2022-09-09T09:11:25;19.77;74.60
6052;DHT22;3054;51.204;4.430;2022-09-09T09:13:56;19.77;74.84
6052;DHT22;3054;51.204;4.430;2022-09-09T09:16:30;19.68;75.22
6052;DHT22;3054;51.204;4.430;2022-09-09T09:18:59;19.68;75.36
6052;DHT22;3054;51.204;4.430;2022-09-09T09:21:34;19.53;75.84
6052;DHT22;3054;51.204;4.430;2022-09-09T09:24:04;19.54;76.13
6052;DHT22;3054;51.204;4.430;2022-09-09T09:26:35;19.52;76.38
6052;DHT22;3054;51.204;4.430;2022-09-09T09:29:11;19.45;76.76
6052;DHT22;3054;51.204;4.430;2022-09-09T09:31:38;19.41;76.93
6052;DHT22;3054;51.204;4.430;2022-09-09T09:34:07;19.40;77.09
6052;DHT22;3054;51.204;4.430;2022-09-09T09:36:39;19.42;77.14
6052;DHT22;3054;51.204;4.430;2022-09-09T09:39:08;19.35;77.39
6052;DHT22;3054;51.204;4.430;2022-09-09T09:41:36;19.24;77.69
6052;DHT22;3054;51.204;4.430;2022-09-09T09:44:05;19.22;77.84
6052;DHT22;3054;51.204;4.430;2022-09-09T09:46:46;19.21;77.88
6052;DHT22;3054;51.204;4.430;2022-09-09T09:49:13;19.21;77.86
6052;DHT22;3054;51.204;4.430;2022-09-09T09:51:40;19.25;77.89
6052;DHT22;3054;51.204;4.430;2022-09-09T09:54:15;19.23;78.01
6052;DHT22;3054;51.204;4.430;2022-09-09T09:56:44;19.26;77.98
6052;DHT22;3054;51.204;4.430;2022-09-09T09:59:33;19.29;77.84
6052;DHT22;3054;51.204;4.430;2022-09-09T10:02:16;19.29;77.80
6052;DHT22;3054;51.204;4.430;2022-09-09T10:04:44;19.25;77.86
6052;DHT22;3054;51.204;4.430;2022-09-09T10:07:12;19.27;77.94
6052;DHT22;3054;51.204;4.430;2022-09-09T10:09:40;19.20;78.17
6052;DHT22;3054;51.204;4.430;2022-09-09T10:12:17;19.21;78.28
6052;DHT22;3054;51.204;4.430;2022-09-09T10:14:54;19.23;78.28
6052;DHT22;3054;51.204;4.430;2022-09-09T10:17:27;19.30;78.08
6052;DHT22;3054;51.204;4.430;2022-09-09T10:20:18;19.40;77.80
6052;DHT22;3054;51.204;4.430;2022-09-09T10:22:51;19.59;77.21
6052;DHT22;3054;51.204;4.430;2022-09-09T10:25:33;19.67;77.01
6052;DHT22;3054;51.204;4.430;2022-09-09T10:28:27;19.60;77.07
6052;DHT22;3054;51.204;4.430;2022-09-09T10:31:05;19.71;76.82
6052;DHT22;3054;51.204;4.430;2022-09-09T10:33:47;19.80;76.65
6052;DHT22;3054;51.204;4.430;2022-09-09T10:36:19;19.85;76.46
6052;DHT22;3054;51.204;4.430;2022-09-09T10:38:49;19.86;76.46
6052;DHT22;3054;51.204;4.430;2022-09-09T10:41:19;19.89;76.31
6052;DHT22;3054;51.204;4.430;2022-09-09T10:46:51;19.84;76.23
6052;DHT22;3054;51.204;4.430;2022-09-09T10:49:29;19.94;76.05
6052;DHT22;3054;51.204;4.430;2022-09-09T10:52:06;19.96;75.96
6052;DHT22;3054;51.204;4.430;2022-09-09T10:54:46;19.97;75.98
6052;DHT22;3054;51.204;4.430;2022-09-09T10:57:26;19.99;75.90
6052;DHT22;3054;51.204;4.430;2022-09-09T11:00:03;20.00;75.73
6052;DHT22;3054;51.204;4.430;2022-09-09T11:02:33;19.91;75.99
6052;DHT22;3054;51.204;4.430;2022-09-09T11:05:04;19.87;76.13
6052;DHT22;3054;51.204;4.430;2022-09-09T11:07:36;19.89;76.07
6052;DHT22;3054;51.204;4.430;2022-09-09T11:10:11;19.90;76.06
6052;DHT22;3054;51.204;4.430;2022-09-09T11:12:43;19.94;76.09
6052;DHT22;3054;51.204;4.430;2022-09-09T11:15:18;19.99;75.94
6052;DHT22;3054;51.204;4.430;2022-09-09T11:17:50;20.10;75.70
6052;DHT22;3054;51.204;4.430;2022-09-09T11:20:20;20.55;74.57
6052;DHT22;3054;51.204;4.430;2022-09-09T11:22:50;21.33;72.72
6052;DHT22;3054;51.204;4.430;2022-09-09T11:25:23;21.73;71.55
6052;DHT22;3054;51.204;4.430;2022-09-09T11:28:14;21.92;70.91
6052;DHT22;3054;51.204;4.430;2022-09-09T11:30:51;21.74;71.32
6052;DHT22;3054;51.204;4.430;2022-09-09T11:33:39;21.50;71.79
6052;DHT22;3054;51.204;4.430;2022-09-09T11:36:32;21.45;72.00
6052;DHT22;3054;51.204;4.430;2022-09-09T11:39:12;21.32;71.93
6052;DHT22;3054;51.204;4.430;2022-09-09T11:41:46;21.39;71.58
6052;DHT22;3054;51.204;4.430;2022-09-09T11:44:18;22.23;69.10
6052;DHT22;3054;51.204;4.430;2022-09-09T11:46:48;21.98;69.82
6052;DHT22;3054;51.204;4.430;2022-09-09T11:49:27;21.94;70.16
6052;DHT22;3054;51.204;4.430;2022-09-09T11:51:54;21.95;69.65
6052;DHT22;3054;51.204;4.430;2022-09-09T11:54:29;22.61;67.73
6052;DHT22;3054;51.204;4.430;2022-09-09T11:56:57;22.27;68.29
6052;DHT22;3054;51.204;4.430;2022-09-09T11:59:26;22.20;68.39
6052;DHT22;3054;51.204;4.430;2022-09-09T12:01:56;22.47;67.74
6052;DHT22;3054;51.204;4.430;2022-09-09T12:04:36;22.43;67.02
6052;DHT22;3054;51.204;4.430;2022-09-09T12:07:23;22.91;65.74
6052;DHT22;3054;51.204;4.430;2022-09-09T12:09:56;23.31;64.95
6052;DHT22;3054;51.204;4.430;2022-09-09T12:12:30;23.42;64.60
6052;DHT22;3054;51.204;4.430;2022-09-09T12:15:00;23.17;65.04
6052;DHT22;3054;51.204;4.430;2022-09-09T12:17:29;22.92;65.75
6052;DHT22;3054;51.204;4.430;2022-09-09T12:20:06;22.76;66.08
6052;DHT22;3054;51.204;4.430;2022-09-09T12:22:40;22.67;66.11
6052;DHT22;3054;51.204;4.430;2022-09-09T12:25:18;22.73;65.73
6052;DHT22;3054;51.204;4.430;2022-09-09T12:28:01;22.86;65.50
6052;DHT22;3054;51.204;4.430;2022-09-09T12:30:34;22.79;65.37
6052;DHT22;3054;51.204;4.430;2022-09-09T12:33:10;22.81;65.36
6052;DHT22;3054;51.204;4.430;2022-09-09T12:35:40;23.01;64.82
6052;DHT22;3054;51.204;4.430;2022-09-09T12:38:13;22.97;64.85
6052;DHT22;3054;51.204;4.430;2022-09-09T12:40:41;22.83;64.99
6052;DHT22;3054;51.204;4.430;2022-09-09T12:43:17;22.78;64.98
6052;DHT22;3054;51.204;4.430;2022-09-09T12:45:45;22.55;65.43
6052;DHT22;3054;51.204;4.430;2022-09-09T12:48:18;22.49;65.68
6052;DHT22;3054;51.204;4.430;2022-09-09T12:50:49;22.35;66.04
6052;DHT22;3054;51.204;4.430;2022-09-09T12:53:22;22.52;65.81
6052;DHT22;3054;51.204;4.430;2022-09-09T12:55:54;22.63;65.38
6052;DHT22;3054;51.204;4.430;2022-09-09T12:58:22;22.51;65.71
6052;DHT22;3054;51.204;4.430;2022-09-09T13:00:51;22.62;65.51
6052;DHT22;3054;51.204;4.430;2022-09-09T13:03:20;22.93;64.85
6052;DHT22;3054;51.204;4.430;2022-09-09T13:05:49;23.11;64.43
6052;DHT22;3054;51.204;4.430;2022-09-09T13:08:17;23.16;64.27
6052;DHT22;3054;51.204;4.430;2022-09-09T13:10:47;23.16;64.18
6052;DHT22;3054;51.204;4.430;2022-09-09T13:13:22;23.17;64.19
6052;DHT22;3054;51.204;4.430;2022-09-09T13:15:52;23.10;64.21
6052;DHT22;3054;51.204;4.430;2022-09-09T13:18:23;23.08;64.18
6052;DHT22;3054;51.204;4.430;2022-09-09T13:20:51;22.97;64.40
6052;DHT22;3054;51.204;4.430;2022-09-09T13:23:20;22.83;64.79
6052;DHT22;3054;51.204;4.430;2022-09-09T13:25:54;22.94;64.53
6052;DHT22;3054;51.204;4.430;2022-09-09T13:28:23;23.16;63.99
6052;DHT22;3054;51.204;4.430;2022-09-09T13:30:58;23.22;63.76
6052;DHT22;3054;51.204;4.430;2022-09-09T13:33:33;23.35;63.36
6052;DHT22;3054;51.204;4.430;2022-09-09T13:36:05;23.38;63.35
6052;DHT22;3054;51.204;4.430;2022-09-09T13:38:33;23.50;63.10
6052;DHT22;3054;51.204;4.430;2022-09-09T13:41:04;23.61;62.86
6052;DHT22;3054;51.204;4.430;2022-09-09T13:43:37;23.52;63.13
6052;DHT22;3054;51.204;4.430;2022-09-09T13:48:56;23.55;62.51
6052;DHT22;3054;51.204;4.430;2022-09-09T13:51:33;23.45;62.73
6052;DHT22;3054;51.204;4.430;2022-09-09T13:54:00;23.39;62.74
6052;DHT22;3054;51.204;4.430;2022-09-09T13:56:27;23.32;62.89
6052;DHT22;3054;51.204;4.430;2022-09-09T13:58:54;23.26;62.89
6052;DHT22;3054;51.204;4.430;2022-09-09T14:01:21;23.17;62.95
6052;DHT22;3054;51.204;4.430;2022-09-09T14:03:48;23.09;63.27
6052;DHT22;3054;51.204;4.430;2022-09-09T14:06:16;23.00;63.37
6052;DHT22;3054;51.204;4.430;2022-09-09T14:08:45;23.08;63.26
6052;DHT22;3054;51.204;4.430;2022-09-09T14:11:13;23.08;63.13
6052;DHT22;3054;51.204;4.430;2022-09-09T14:13:40;23.05;63.21
6052;DHT22;3054;51.204;4.430;2022-09-09T14:16:07;23.07;63.11
6052;DHT22;3054;51.204;4.430;2022-09-09T14:18:34;23.10;63.03
6052;DHT22;3054;51.204;4.430;2022-09-09T14:21:02;23.09;63.02
6052;DHT22;3054;51.204;4.430;2022-09-09T14:23:28;23.08;63.06
6052;DHT22;3054;51.204;4.430;2022-09-09T14:25:57;23.14;62.95
6052;DHT22;3054;51.204;4.430;2022-09-09T14:28:24;23.24;62.85
6052;DHT22;3054;51.204;4.430;2022-09-09T14:30:51;23.34;62.80
6052;DHT22;3054;51.204;4.430;2022-09-09T14:33:18;23.44;62.66
6052;DHT22;3054;51.204;4.430;2022-09-09T14:35:45;23.46;62.53
6052;DHT22;3054;51.204;4.430;2022-09-09T14:38:12;23.43;62.69
6052;DHT22;3054;51.204;4.430;2022-09-09T14:40:39;23.43;62.66
6052;DHT22;3054;51.204;4.430;2022-09-09T14:43:11;23.46;62.28
6052;DHT22;3054;51.204;4.430;2022-09-09T14:45:37;23.39;62.29
6052;DHT22;3054;51.204;4.430;2022-09-09T14:48:04;23.23;62.63
6052;DHT22;3054;51.204;4.430;2022-09-09T14:50:31;23.13;62.92
6052;DHT22;3054;51.204;4.430;2022-09-09T14:53:00;23.24;62.71
6052;DHT22;3054;51.204;4.430;2022-09-09T14:55:27;23.15;62.93
6052;DHT22;3054;51.204;4.430;2022-09-09T14:57:54;23.02;63.23
6052;DHT22;3054;51.204;4.430;2022-09-09T15:00:23;22.97;63.36
6052;DHT22;3054;51.204;4.430;2022-09-09T15:02:52;22.91;63.54
6052;DHT22;3054;51.204;4.430;2022-09-09T15:05:19;22.84;63.66
6052;DHT22;3054;51.204;4.430;2022-09-09T15:07:46;22.73;63.97
6052;DHT22;3054;51.204;4.430;2022-09-09T15:10:14;22.68;64.17
6052;DHT22;3054;51.204;4.430;2022-09-09T15:12:42;22.63;64.59
6052;DHT22;3054;51.204;4.430;2022-09-09T15:15:09;22.57;65.14
6052;DHT22;3054;51.204;4.430;2022-09-09T15:17:38;22.46;65.91
6052;DHT22;3054;51.204;4.430;2022-09-09T15:20:06;22.41;66.56
6052;DHT22;3054;51.204;4.430;2022-09-09T15:22:33;22.43;66.79
6052;DHT22;3054;51.204;4.430;2022-09-09T15:25:02;22.43;67.13
6052;DHT22;3054;51.204;4.430;2022-09-09T15:27:29;22.38;67.47
6052;DHT22;3054;51.204;4.430;2022-09-09T15:29:56;22.37;67.62
6052;DHT22;3054;51.204;4.430;2022-09-09T15:32:23;22.40;67.70
6052;DHT22;3054;51.204;4.430;2022-09-09T15:34:52;22.42;67.73
6052;DHT22;3054;51.204;4.430;2022-09-09T15:37:19;22.44;67.78
6052;DHT22;3054;51.204;4.430;2022-09-09T15:39:46;22.47;68.04
6052;DHT22;3054;51.204;4.430;2022-09-09T15:42:13;22.43;68.10
6052;DHT22;3054;51.204;4.430;2022-09-09T15:44:40;22.46;68.15
6052;DHT22;3054;51.204;4.430;2022-09-09T15:47:10;22.46;68.21
6052;DHT22;3054;51.204;4.430;2022-09-09T15:49:38;22.48;68.04
6052;DHT22;3054;51.204;4.430;2022-09-09T15:52:08;22.47;67.81
6052;DHT22;3054;51.204;4.430;2022-09-09T15:54:39;22.48;67.53
6052;DHT22;3054;51.204;4.430;2022-09-09T15:57:12;22.47;67.18
6052;DHT22;3054;51.204;4.430;2022-09-09T15:59:39;22.41;67.16
6052;DHT22;3054;51.204;4.430;2022-09-09T16:02:06;22.35;67.09
6052;DHT22;3054;51.204;4.430;2022-09-09T16:04:33;22.31;67.01
6052;DHT22;3054;51.204;4.430;2022-09-09T16:07:02;22.27;67.02
6052;DHT22;3054;51.204;4.430;2022-09-09T16:09:32;22.23;67.04
6052;DHT22;3054;51.204;4.430;2022-09-09T16:12:01;22.21;67.08
6052;DHT22;3054;51.204;4.430;2022-09-09T16:14:32;22.19;67.14
6052;DHT22;3054;51.204;4.430;2022-09-09T16:17:01;22.11;67.32
6052;DHT22;3054;51.204;4.430;2022-09-09T16:19:28;22.03;67.52
6052;DHT22;3054;51.204;4.430;2022-09-09T16:21:55;22.02;67.65
6052;DHT22;3054;51.204;4.430;2022-09-09T16:24:22;22.18;67.45
6052;DHT22;3054;51.204;4.430;2022-09-09T16:26:53;22.27;67.59
6052;DHT22;3054;51.204;4.430;2022-09-09T16:29:21;22.32;67.63
6052;DHT22;3054;51.204;4.430;2022-09-09T16:31:49;22.28;67.97
6052;DHT22;3054;51.204;4.430;2022-09-09T16:34:18;22.24;68.26
6052;DHT22;3054;51.204;4.430;2022-09-09T16:36:45;22.17;68.68